sensor_id;sensor_type;location;lat;lon;timestamp;temperature;humidity
9662;DHT22;24982;52.344;12.990;2022-11-20T00:00:41;1.10;99.90
9662;DHT22;24982;52.344;12.990;2022-11-20T00:03:45;1.10;99.90
9662;DHT22;24982;52.344;12.990;2022-11-20T00:06:47;1.10;99.90
9662;DHT22;24982;52.344;12.990;2022-11-20T00:09:49;1.10;99.90
9662;DHT22;24982;52.344;12.990;2022-11-20T00:12:51;1.20;99.90
9662;DHT22;24982;52.344;12.990;2022-11-20T00:15:57;1.20;99.90
9662;DHT22;24982;52.344;12.990;2022-11-20T00:19:01;1.10;99.90
9662;DHT22;24982;52.344;12.990;2022-11-20T00:22:03;1.10;99.90
9662;DHT22;24982;52.344;12.990;2022-11-20T00:25:05;1.10;99.90
9662;DHT22;24982;52.344;12.990;2022-11-20T00:28:07;1.00;99.90
9662;DHT22;24982;52.344;12.990;2022-11-20T00:31:13;1.00;99.90
9662;DHT22;24982;52.344;12.990;2022-11-20T00:34:16;1.10;99.90
9662;DHT22;24982;52.344;12.990;2022-11-20T00:37:18;1.20;99.90
9662;DHT22;24982;52.344;12.990;2022-11-20T00:40:20;1.20;99.90
9662;DHT22;24982;52.344;12.990;2022-11-20T00:43:22;1.10;99.90
9662;DHT22;24982;52.344;12.990;2022-11-20T00:46:25;1.10;99.90
9662;DHT22;24982;52.344;12.990;2022-11-20T00:49:29;1.10;99.90
9662;DHT22;24982;52.344;12.990;2022-11-20T00:52:31;1.20;99.90
9662;DHT22;24982;52.344;12.990;2022-11-20T00:55:33;1.20;99.90
9662;DHT22;24982;52.344;12.990;2022-11-20T00:58:36;1.20;99.90
9662;DHT22;24982;52.344;12.990;2022-11-20T01:01:38;1.20;99.90
9662;DHT22;24982;52.344;12.990;2022-11-20T01:04:42;1.20;99.90
9662;DHT22;24982;52.344;12.990;2022-11-20T01:07:44;1.20;99.90
9662;DHT22;24982;52.344;12.990;2022-11-20T01:10:46;1.20;99.90
9662;DHT22;24982;52.344;12.990;2022-11-20T01:13:49;1.10;99.90
9662;DHT22;24982;52.344;12.990;2022-11-20T01:16:52;1.10;99.90
9662;DHT22;24982;52.344;12.990;2022-11-20T01:19:55;1.00;99.90
9662;DHT22;24982;52.344;12.990;2022-11-20T01:22:57;1.00;99.90
9662;DHT22;24982;52.344;12.990;2022-11-20T01:26:00;1.00;99.90
9662;DHT22;24982;52.344;12.990;2022-11-20T01:29:03;1.00;99.90
9662;DHT22;24982;52.344;12.990;2022-11-20T01:32:06;0.90;99.90
9662;DHT22;24982;52.344;12.990;2022-11-20T01:35:09;0.80;99.90
9662;DHT22;24982;52.344;12.990;2022-11-20T01:38:11;0.70;99.90
9662;DHT22;24982;52.344;12.990;2022-11-20T01:41:14;0.70;99.90
9662;DHT22;24982;52.344;12.990;2022-11-20T01:44:52;0.70;99.90
9662;DHT22;24982;52.344;12.990;2022-11-20T01:47:53;0.70;99.90
9662;DHT22;24982;52.344;12.990;2022-11-20T01:50:57;0.70;99.90
9662;DHT22;24982;52.344;12.990;2022-11-20T01:54:03;0.70;99.90
9662;DHT22;24982;52.344;12.990;2022-11-20T01:57:08;0.70;99.90
9662;DHT22;24982;52.344;12.990;2022-11-20T02:00:15;0.60;99.90
9662;DHT22;24982;52.344;12.990;2022-11-20T02:03:19;0.50;99.90
9662;DHT22;24982;52.344;12.990;2022-11-20T02:06:27;0.50;99.90
9662;DHT22;24982;52.344;12.990;2022-11-20T02:09:30;0.50;99.90
9662;DHT22;24982;52.344;12.990;2022-11-20T02:12:32;0.50;99.90
9662;DHT22;24982;52.344;12.990;2022-11-20T02:15:52;0.40;99.90
9662;DHT22;24982;52.344;12.990;2022-11-20T02:18:55;0.40;99.90
9662;DHT22;24982;52.344;12.990;2022-11-20T02:22:07;0.30;99.90
9662;DHT22;24982;52.344;12.990;2022-11-20T02:25:14;0.10;99.90
9662;DHT22;24982;52.344;12.990;2022-11-20T02:31:19;-0.10;99.90
9662;DHT22;24982;52.344;12.990;2022-11-20T02:34:21;-0.20;99.90
9662;DHT22;24982;52.344;12.990;2022-11-20T02:37:23;0.00;99.90
9662;DHT22;24982;52.344;12.990;2022-11-20T02:40:29;0.00;99.90
9662;DHT22;24982;52.344;12.990;2022-11-20T02:43:31;0.10;99.90
9662;DHT22;24982;52.344;12.990;2022-11-20T02:46:34;0.20;99.90
9662;DHT22;24982;52.344;12.990;2022-11-20T02:49:36;0.20;99.90
9662;DHT22;24982;52.344;12.990;2022-11-20T02:52:38;0.30;99.90
9662;DHT22;24982;52.344;12.990;2022-11-20T02:55:41;0.40;99.90
9662;DHT22;24982;52.344;12.990;2022-11-20T02:58:43;0.40;99.90
9662;DHT22;24982;52.344;12.990;2022-11-20T03:01:45;0.20;99.90
9662;DHT22;24982;52.344;12.990;2022-11-20T03:04:47;0.30;99.90
9662;DHT22;24982;52.344;12.990;2022-11-20T03:07:49;0.30;99.90
9662;DHT22;24982;52.344;12.990;2022-11-20T03:10:52;0.40;99.90
9662;DHT22;24982;52.344;12.990;2022-11-20T03:13:54;0.40;99.90
9662;DHT22;24982;52.344;12.990;2022-11-20T03:16:56;0.60;99.90
9662;DHT22;24982;52.344;12.990;2022-11-20T03:19:58;0.60;99.90
9662;DHT22;24982;52.344;12.990;2022-11-20T03:23:01;0.60;99.90
9662;DHT22;24982;52.344;12.990;2022-11-20T03:26:13;0.70;99.90
9662;DHT22;24982;52.344;12.990;2022-11-20T03:29:15;0.70;99.90
9662;DHT22;24982;52.344;12.990;2022-11-20T03:32:17;0.80;99.90
9662;DHT22;24982;52.344;12.990;2022-11-20T03:35:19;0.70;99.90
9662;DHT22;24982;52.344;12.990;2022-11-20T03:38:21;0.70;99.90
9662;DHT22;24982;52.344;12.990;2022-11-20T03:41:26;0.60;99.90
9662;DHT22;24982;52.344;12.990;2022-11-20T03:44:28;0.50;99.90
9662;DHT22;24982;52.344;12.990;2022-11-20T03:47:30;0.70;99.90
9662;DHT22;24982;52.344;12.990;2022-11-20T03:50:32;0.60;99.90
9662;DHT22;24982;52.344;12.990;2022-11-20T03:53:34;0.70;99.90
9662;DHT22;24982;52.344;12.990;2022-11-20T03:56:38;0.80;99.90
9662;DHT22;24982;52.344;12.990;2022-11-20T03:59:40;0.70;99.90
9662;DHT22;24982;52.344;12.990;2022-11-20T04:02:42;0.60;99.90
9662;DHT22;24982;52.344;12.990;2022-11-20T04:05:44;0.50;99.90
9662;DHT22;24982;52.344;12.990;2022-11-20T04:08:46;0.60;99.90
9662;DHT22;24982;52.344;12.990;2022-11-20T04:11:50;0.70;99.90
9662;DHT22;24982;52.344;12.990;2022-11-20T04:14:52;0.80;99.90
9662;DHT22;24982;52.344;12.990;2022-11-20T04:17:54;0.70;99.90
9662;DHT22;24982;52.344;12.990;2022-11-20T04:20:56;0.80;99.90
9662;DHT22;24982;52.344;12.990;2022-11-20T04:23:58;0.70;99.90
9662;DHT22;24982;52.344;12.990;2022-11-20T04:27:02;0.80;99.90
9662;DHT22;24982;52.344;12.990;2022-11-20T04:30:04;0.70;99.90
9662;DHT22;24982;52.344;12.990;2022-11-20T04:33:06;0.70;99.90
9662;DHT22;24982;52.344;12.990;2022-11-20T04:36:11;0.80;99.90
9662;DHT22;24982;52.344;12.990;2022-11-20T04:39:14;1.10;99.90
9662;DHT22;24982;52.344;12.990;2022-11-20T04:42:18;0.90;99.90
9662;DHT22;24982;52.344;12.990;2022-11-20T04:45:32;0.90;99.90
9662;DHT22;24982;52.344;12.990;2022-11-20T04:48:34;0.90;99.90
9662;DHT22;24982;52.344;12.990;2022-11-20T04:51:36;1.00;99.90
9662;DHT22;24982;52.344;12.990;2022-11-20T04:54:38;0.80;99.90
9662;DHT22;24982;52.344;12.990;2022-11-20T04:57:42;0.70;99.90
9662;DHT22;24982;52.344;12.990;2022-11-20T05:00:43;1.00;99.90
9662;DHT22;24982;52.344;12.990;2022-11-20T05:03:46;0.90;99.90
9662;DHT22;24982;52.344;12.990;2022-11-20T05:06:50;1.00;99.90
9662;DHT22;24982;52.344;12.990;2022-11-20T05:09:52;1.00;99.90
9662;DHT22;24982;52.344;12.990;2022-11-20T05:12:57;0.90;99.90
9662;DHT22;24982;52.344;12.990;2022-11-20T05:16:01;1.00;99.90
9662;DHT22;24982;52.344;12.990;2022-11-20T05:19:03;1.00;99.90
9662;DHT22;24982;52.344;12.990;2022-11-20T05:22:05;0.90;99.90
9662;DHT22;24982;52.344;12.990;2022-11-20T05:25:08;0.90;99.90
9662;DHT22;24982;52.344;12.990;2022-11-20T05:28:11;1.00;99.90
9662;DHT22;24982;52.344;12.990;2022-11-20T05:31:15;0.90;99.90
9662;DHT22;24982;52.344;12.990;2022-11-20T05:34:17;1.00;99.90
9662;DHT22;24982;52.344;12.990;2022-11-20T05:37:19;1.10;99.90
9662;DHT22;24982;52.344;12.990;2022-11-20T05:40:21;1.10;99.90
9662;DHT22;24982;52.344;12.990;2022-11-20T05:43:24;1.20;99.90
9662;DHT22;24982;52.344;12.990;2022-11-20T05:46:27;1.10;99.90
9662;DHT22;24982;52.344;12.990;2022-11-20T05:49:29;1.00;99.90
9662;DHT22;24982;52.344;12.990;2022-11-20T05:52:31;0.90;99.90
9662;DHT22;24982;52.344;12.990;2022-11-20T05:55:32;0.90;99.90
9662;DHT22;24982;52.344;12.990;2022-11-20T05:58:36;0.90;99.90
9662;DHT22;24982;52.344;12.990;2022-11-20T06:01:38;0.90;99.90
9662;DHT22;24982;52.344;12.990;2022-11-20T06:04:40;0.90;99.90
9662;DHT22;24982;52.344;12.990;2022-11-20T06:07:42;0.80;99.90
9662;DHT22;24982;52.344;12.990;2022-11-20T06:10:44;0.80;99.90
9662;DHT22;24982;52.344;12.990;2022-11-20T06:13:48;0.90;99.90
9662;DHT22;24982;52.344;12.990;2022-11-20T06:16:50;0.60;99.90
9662;DHT22;24982;52.344;12.990;2022-11-20T06:19:52;0.60;99.90
9662;DHT22;24982;52.344;12.990;2022-11-20T06:22:54;0.60;99.90
9662;DHT22;24982;52.344;12.990;2022-11-20T06:25:56;0.40;99.90
9662;DHT22;24982;52.344;12.990;2022-11-20T06:28:59;0.40;99.90
9662;DHT22;24982;52.344;12.990;2022-11-20T06:32:01;0.40;99.90
9662;DHT22;24982;52.344;12.990;2022-11-20T06:35:04;0.30;99.90
9662;DHT22;24982;52.344;12.990;2022-11-20T06:38:06;0.50;99.90
9662;DHT22;24982;52.344;12.990;2022-11-20T06:41:11;0.50;99.90
9662;DHT22;24982;52.344;12.990;2022-11-20T06:44:14;0.50;99.90
9662;DHT22;24982;52.344;12.990;2022-11-20T06:47:16;0.70;99.90
9662;DHT22;24982;52.344;12.990;2022-11-20T06:50:18;0.80;99.90
9662;DHT22;24982;52.344;12.990;2022-11-20T06:53:21;0.60;99.90
9662;DHT22;24982;52.344;12.990;2022-11-20T06:56:23;0.80;99.90
9662;DHT22;24982;52.344;12.990;2022-11-20T06:59:26;0.90;99.90
9662;DHT22;24982;52.344;12.990;2022-11-20T07:02:28;0.90;99.90
9662;DHT22;24982;52.344;12.990;2022-11-20T07:05:30;1.10;99.90
9662;DHT22;24982;52.344;12.990;2022-11-20T07:08:32;1.00;99.90
9662;DHT22;24982;52.344;12.990;2022-11-20T07:11:34;1.00;99.90
9662;DHT22;24982;52.344;12.990;2022-11-20T07:14:38;1.10;99.90
9662;DHT22;24982;52.344;12.990;2022-11-20T07:17:40;1.10;99.90
9662;DHT22;24982;52.344;12.990;2022-11-20T07:20:42;1.10;99.90
9662;DHT22;24982;52.344;12.990;2022-11-20T07:23:43;1.20;99.90
9662;DHT22;24982;52.344;12.990;2022-11-20T07:26:46;1.00;99.90
9662;DHT22;24982;52.344;12.990;2022-11-20T07:29:51;1.10;99.90
9662;DHT22;24982;52.344;12.990;2022-11-20T07:32:53;1.30;99.90
9662;DHT22;24982;52.344;12.990;2022-11-20T07:35:57;1.20;99.90
9662;DHT22;24982;52.344;12.990;2022-11-20T07:39:00;1.10;99.90
9662;DHT22;24982;52.344;12.990;2022-11-20T07:42:02;1.10;99.90
9662;DHT22;24982;52.344;12.990;2022-11-20T07:45:06;1.00;99.90
9662;DHT22;24982;52.344;12.990;2022-11-20T07:48:08;1.00;99.90
9662;DHT22;24982;52.344;12.990;2022-11-20T07:54:12;0.90;99.90
9662;DHT22;24982;52.344;12.990;2022-11-20T07:57:14;0.80;99.90
9662;DHT22;24982;52.344;12.990;2022-11-20T08:00:18;0.70;99.90
9662;DHT22;24982;52.344;12.990;2022-11-20T08:03:20;0.90;99.90
9662;DHT22;24982;52.344;12.990;2022-11-20T08:06:22;1.00;99.90
9662;DHT22;24982;52.344;12.990;2022-11-20T08:09:25;0.90;99.90
9662;DHT22;24982;52.344;12.990;2022-11-20T08:12:27;0.90;99.90
9662;DHT22;24982;52.344;12.990;2022-11-20T08:15:49;0.80;99.90
9662;DHT22;24982;52.344;12.990;2022-11-20T08:18:52;0.70;99.90
9662;DHT22;24982;52.344;12.990;2022-11-20T08:21:55;0.70;99.90
9662;DHT22;24982;52.344;12.990;2022-11-20T08:24:56;0.70;99.90
9662;DHT22;24982;52.344;12.990;2022-11-20T08:27:59;0.60;99.90
9662;DHT22;24982;52.344;12.990;2022-11-20T08:31:03;0.70;99.90
9662;DHT22;24982;52.344;12.990;2022-11-20T08:34:05;0.90;99.90
9662;DHT22;24982;52.344;12.990;2022-11-20T08:37:07;0.90;99.90
9662;DHT22;24982;52.344;12.990;2022-11-20T08:40:11;0.80;99.90
9662;DHT22;24982;52.344;12.990;2022-11-20T08:43:13;0.90;99.90
9662;DHT22;24982;52.344;12.990;2022-11-20T08:46:16;0.90;99.90
9662;DHT22;24982;52.344;12.990;2022-11-20T08:52:22;1.00;99.90
9662;DHT22;24982;52.344;12.990;2022-11-20T08:55:24;1.00;99.90
9662;DHT22;24982;52.344;12.990;2022-11-20T08:58:26;1.10;99.90
9662;DHT22;24982;52.344;12.990;2022-11-20T09:01:29;1.10;99.90
9662;DHT22;24982;52.344;12.990;2022-11-20T09:04:31;1.10;99.90
9662;DHT22;24982;52.344;12.990;2022-11-20T09:07:33;1.20;99.90
9662;DHT22;24982;52.344;12.990;2022-11-20T09:10:35;1.00;99.90
9662;DHT22;24982;52.344;12.990;2022-11-20T09:13:40;1.00;99.90
9662;DHT22;24982;52.344;12.990;2022-11-20T09:16:44;1.10;99.90
9662;DHT22;24982;52.344;12.990;2022-11-20T09:19:46;1.20;99.90
9662;DHT22;24982;52.344;12.990;2022-11-20T09:22:49;1.10;99.90
9662;DHT22;24982;52.344;12.990;2022-11-20T09:25:51;1.10;99.90
9662;DHT22;24982;52.344;12.990;2022-11-20T09:28:53;1.10;99.90
9662;DHT22;24982;52.344;12.990;2022-11-20T09:31:56;1.10;99.90
9662;DHT22;24982;52.344;12.990;2022-11-20T09:34:58;1.00;99.90
9662;DHT22;24982;52.344;12.990;2022-11-20T09:38:04;1.00;99.90
9662;DHT22;24982;52.344;12.990;2022-11-20T09:41:10;1.00;99.90
9662;DHT22;24982;52.344;12.990;2022-11-20T09:44:28;1.60;99.90
9662;DHT22;24982;52.344;12.990;2022-11-20T09:47:43;1.00;99.90
9662;DHT22;24982;52.344;12.990;2022-11-20T09:50:53;1.00;99.90
9662;DHT22;24982;52.344;12.990;2022-11-20T09:54:15;0.90;99.90
9662;DHT22;24982;52.344;12.990;2022-11-20T09:57:20;1.10;99.90
9662;DHT22;24982;52.344;12.990;2022-11-20T10:00:23;1.00;99.90
9662;DHT22;24982;52.344;12.990;2022-11-20T10:03:33;1.10;99.90
9662;DHT22;24982;52.344;12.990;2022-11-20T10:06:43;1.20;99.90
9662;DHT22;24982;52.344;12.990;2022-11-20T10:09:51;1.20;99.90
9662;DHT22;24982;52.344;12.990;2022-11-20T10:13:05;1.40;99.90
9662;DHT22;24982;52.344;12.990;2022-11-20T10:16:23;1.40;99.90
9662;DHT22;24982;52.344;12.990;2022-11-20T10:19:39;1.20;99.90
9662;DHT22;24982;52.344;12.990;2022-11-20T10:22:58;1.20;99.90
9662;DHT22;24982;52.344;12.990;2022-11-20T10:26:04;1.30;99.90
9662;DHT22;24982;52.344;12.990;2022-11-20T10:29:15;1.50;99.90
9662;DHT22;24982;52.344;12.990;2022-11-20T10:32:20;1.20;99.90
9662;DHT22;24982;52.344;12.990;2022-11-20T10:35:27;1.10;99.90
9662;DHT22;24982;52.344;12.990;2022-11-20T10:38:34;1.30;99.90
9662;DHT22;24982;52.344;12.990;2022-11-20T10:41:40;1.30;99.90
9662;DHT22;24982;52.344;12.990;2022-11-20T10:44:47;1.40;99.90
9662;DHT22;24982;52.344;12.990;2022-11-20T10:48:12;1.50;99.90
9662;DHT22;24982;52.344;12.990;2022-11-20T10:51:26;1.60;99.90
9662;DHT22;24982;52.344;12.990;2022-11-20T10:54:36;1.70;99.90
9662;DHT22;24982;52.344;12.990;2022-11-20T10:57:52;1.90;99.90
9662;DHT22;24982;52.344;12.990;2022-11-20T11:01:03;2.00;99.90
9662;DHT22;24982;52.344;12.990;2022-11-20T11:04:18;2.20;99.90
9662;DHT22;24982;52.344;12.990;2022-11-20T11:07:27;2.30;99.90
9662;DHT22;24982;52.344;12.990;2022-11-20T11:10:39;2.60;99.90
9662;DHT22;24982;52.344;12.990;2022-11-20T11:13:43;2.60;99.90
9662;DHT22;24982;52.344;12.990;2022-11-20T11:16:49;2.80;99.90
9662;DHT22;24982;52.344;12.990;2022-11-20T11:20:07;2.90;99.90
9662;DHT22;24982;52.344;12.990;2022-11-20T11:23:31;2.80;99.90
9662;DHT22;24982;52.344;12.990;2022-11-20T11:26:33;2.70;99.90
9662;DHT22;24982;52.344;12.990;2022-11-20T11:29:35;2.60;99.90
9662;DHT22;24982;52.344;12.990;2022-11-20T11:32:37;2.40;99.90
9662;DHT22;24982;52.344;12.990;2022-11-20T11:35:45;2.50;99.90
9662;DHT22;24982;52.344;12.990;2022-11-20T11:38:51;2.50;99.90
9662;DHT22;24982;52.344;12.990;2022-11-20T11:41:55;2.60;99.90
9662;DHT22;24982;52.344;12.990;2022-11-20T11:44:59;2.60;99.90
9662;DHT22;24982;52.344;12.990;2022-11-20T11:48:09;2.60;99.90
9662;DHT22;24982;52.344;12.990;2022-11-20T11:51:11;2.50;99.90
9662;DHT22;24982;52.344;12.990;2022-11-20T11:54:20;2.60;99.90
9662;DHT22;24982;52.344;12.990;2022-11-20T11:57:29;2.50;99.90
9662;DHT22;24982;52.344;12.990;2022-11-20T12:00:37;2.20;99.90
9662;DHT22;24982;52.344;12.990;2022-11-20T12:03:42;2.20;99.90
9662;DHT22;24982;52.344;12.990;2022-11-20T12:06:51;2.00;99.90
9662;DHT22;24982;52.344;12.990;2022-11-20T12:09:57;2.00;99.90
9662;DHT22;24982;52.344;12.990;2022-11-20T12:13:04;2.00;99.90
9662;DHT22;24982;52.344;12.990;2022-11-20T12:16:14;1.80;99.90
9662;DHT22;24982;52.344;12.990;2022-11-20T12:19:17;1.90;99.90
9662;DHT22;24982;52.344;12.990;2022-11-20T12:22:26;1.80;99.90
9662;DHT22;24982;52.344;12.990;2022-11-20T12:25:34;1.80;99.90
9662;DHT22;24982;52.344;12.990;2022-11-20T12:28:50;1.90;99.90
9662;DHT22;24982;52.344;12.990;2022-11-20T12:32:05;2.00;99.90
9662;DHT22;24982;52.344;12.990;2022-11-20T12:35:35;1.90;99.90
9662;DHT22;24982;52.344;12.990;2022-11-20T12:38:58;2.10;99.90
9662;DHT22;24982;52.344;12.990;2022-11-20T12:42:31;2.10;99.90
9662;DHT22;24982;52.344;12.990;2022-11-20T12:46:22;2.00;99.90
9662;DHT22;24982;52.344;12.990;2022-11-20T12:49:30;2.00;99.90
9662;DHT22;24982;52.344;12.990;2022-11-20T12:52:47;1.80;99.90
9662;DHT22;24982;52.344;12.990;2022-11-20T12:55:58;1.60;99.90
9662;DHT22;24982;52.344;12.990;2022-11-20T12:59:21;1.60;99.90
9662;DHT22;24982;52.344;12.990;2022-11-20T13:02:30;1.50;99.90
9662;DHT22;24982;52.344;12.990;2022-11-20T13:05:38;1.50;99.90
9662;DHT22;24982;52.344;12.990;2022-11-20T13:08:42;1.50;99.90
9662;DHT22;24982;52.344;12.990;2022-11-20T13:11:49;1.40;99.90
9662;DHT22;24982;52.344;12.990;2022-11-20T13:14:57;1.40;99.90
9662;DHT22;24982;52.344;12.990;2022-11-20T13:18:04;1.30;99.90
9662;DHT22;24982;52.344;12.990;2022-11-20T13:21:14;1.30;99.90
9662;DHT22;24982;52.344;12.990;2022-11-20T13:24:34;1.50;99.90
9662;DHT22;24982;52.344;12.990;2022-11-20T13:27:47;1.60;99.90
9662;DHT22;24982;52.344;12.990;2022-11-20T13:30:52;1.60;99.90
9662;DHT22;24982;52.344;12.990;2022-11-20T13:33:55;1.70;99.90
9662;DHT22;24982;52.344;12.990;2022-11-20T13:36:59;1.70;99.90
9662;DHT22;24982;52.344;12.990;2022-11-20T13:40:21;1.70;99.90
9662;DHT22;24982;52.344;12.990;2022-11-20T13:43:28;1.60;99.90
9662;DHT22;24982;52.344;12.990;2022-11-20T13:46:40;1.60;99.90
9662;DHT22;24982;52.344;12.990;2022-11-20T13:49:44;1.70;99.90
9662;DHT22;24982;52.344;12.990;2022-11-20T13:52:52;2.10;99.90
9662;DHT22;24982;52.344;12.990;2022-11-20T13:56:01;1.80;99.90
9662;DHT22;24982;52.344;12.990;2022-11-20T13:59:14;1.90;99.90
9662;DHT22;24982;52.344;12.990;2022-11-20T14:02:25;2.00;99.90
9662;DHT22;24982;52.344;12.990;2022-11-20T14:05:27;1.90;99.90
9662;DHT22;24982;52.344;12.990;2022-11-20T14:08:36;2.00;99.90
9662;DHT22;24982;52.344;12.990;2022-11-20T14:11:46;1.80;99.90
9662;DHT22;24982;52.344;12.990;2022-11-20T14:14:51;1.80;99.90
9662;DHT22;24982;52.344;12.990;2022-11-20T14:17:55;1.80;99.90
9662;DHT22;24982;52.344;12.990;2022-11-20T14:21:00;1.70;99.90
9662;DHT22;24982;52.344;12.990;2022-11-20T14:24:06;1.60;99.90
9662;DHT22;24982;52.344;12.990;2022-11-20T14:27:13;1.70;99.90
9662;DHT22;24982;52.344;12.990;2022-11-20T14:30:16;1.60;99.90
9662;DHT22;24982;52.344;12.990;2022-11-20T14:33:20;1.50;99.90
9662;DHT22;24982;52.344;12.990;2022-11-20T14:36:25;1.60;99.90
9662;DHT22;24982;52.344;12.990;2022-11-20T14:39:31;1.50;99.90
9662;DHT22;24982;52.344;12.990;2022-11-20T14:42:34;1.50;99.90
9662;DHT22;24982;52.344;12.990;2022-11-20T14:45:38;1.40;99.90
9662;DHT22;24982;52.344;12.990;2022-11-20T14:48:44;1.50;99.90
9662;DHT22;24982;52.344;12.990;2022-11-20T14:51:47;1.50;99.90
9662;DHT22;24982;52.344;12.990;2022-11-20T14:54:59;1.50;99.90
9662;DHT22;24982;52.344;12.990;2022-11-20T14:58:03;1.50;99.90
9662;DHT22;24982;52.344;12.990;2022-11-20T15:01:07;1.40;99.90
9662;DHT22;24982;52.344;12.990;2022-11-20T15:04:11;1.40;99.90
9662;DHT22;24982;52.344;12.990;2022-11-20T15:07:23;1.40;99.90
9662;DHT22;24982;52.344;12.990;2022-11-20T15:10:27;1.50;99.90
9662;DHT22;24982;52.344;12.990;2022-11-20T15:13:31;1.50;99.90
9662;DHT22;24982;52.344;12.990;2022-11-20T15:16:33;1.40;99.90
9662;DHT22;24982;52.344;12.990;2022-11-20T15:19:37;1.40;99.90
9662;DHT22;24982;52.344;12.990;2022-11-20T15:22:39;1.50;99.90
9662;DHT22;24982;52.344;12.990;2022-11-20T15:25:42;1.40;99.90
9662;DHT22;24982;52.344;12.990;2022-11-20T15:28:45;1.40;99.90
9662;DHT22;24982;52.344;12.990;2022-11-20T15:31:48;1.30;99.90
9662;DHT22;24982;52.344;12.990;2022-11-20T15:34:52;1.30;99.90
9662;DHT22;24982;52.344;12.990;2022-11-20T15:37:55;1.30;99.90
9662;DHT22;24982;52.344;12.990;2022-11-20T15:40:57;1.40;99.90
9662;DHT22;24982;52.344;12.990;2022-11-20T15:43:59;1.20;99.90
9662;DHT22;24982;52.344;12.990;2022-11-20T15:47:01;1.30;99.90
9662;DHT22;24982;52.344;12.990;2022-11-20T15:50:10;1.50;99.90
9662;DHT22;24982;52.344;12.990;2022-11-20T15:53:15;1.50;99.90
9662;DHT22;24982;52.344;12.990;2022-11-20T15:56:17;1.60;99.90
9662;DHT22;24982;52.344;12.990;2022-11-20T15:59:19;1.60;99.90
9662;DHT22;24982;52.344;12.990;2022-11-20T16:02:21;1.60;99.90
9662;DHT22;24982;52.344;12.990;2022-11-20T16:05:27;1.60;99.90
9662;DHT22;24982;52.344;12.990;2022-11-20T16:08:29;1.60;99.90
9662;DHT22;24982;52.344;12.990;2022-11-20T16:11:31;1.50;99.90
9662;DHT22;24982;52.344;12.990;2022-11-20T16:14:33;1.50;99.90
9662;DHT22;24982;52.344;12.990;2022-11-20T16:17:53;1.50;99.90
9662;DHT22;24982;52.344;12.990;2022-11-20T16:20:57;1.80;99.90
9662;DHT22;24982;52.344;12.990;2022-11-20T16:23:59;1.50;99.90
9662;DHT22;24982;52.344;12.990;2022-11-20T16:27:01;1.60;99.90
9662;DHT22;24982;52.344;12.990;2022-11-20T16:30:04;1.50;99.90
9662;DHT22;24982;52.344;12.990;2022-11-20T16:33:10;1.50;99.90
9662;DHT22;24982;52.344;12.990;2022-11-20T16:36:14;1.50;99.90
9662;DHT22;24982;52.344;12.990;2022-11-20T16:39:16;1.50;99.90
9662;DHT22;24982;52.344;12.990;2022-11-20T16:42:18;1.50;99.90
9662;DHT22;24982;52.344;12.990;2022-11-20T16:45:21;1.30;99.90
9662;DHT22;24982;52.344;12.990;2022-11-20T16:48:23;1.20;99.90
9662;DHT22;24982;52.344;12.990;2022-11-20T16:51:27;1.10;99.90
9662;DHT22;24982;52.344;12.990;2022-11-20T16:54:29;1.20;99.90
9662;DHT22;24982;52.344;12.990;2022-11-20T16:57:31;1.10;99.90
9662;DHT22;24982;52.344;12.990;2022-11-20T17:00:35;1.10;99.90
9662;DHT22;24982;52.344;12.990;2022-11-20T17:03:39;1.10;99.90
9662;DHT22;24982;52.344;12.990;2022-11-20T17:06:43;1.00;99.90
9662;DHT22;24982;52.344;12.990;2022-11-20T17:09:46;0.90;99.90
9662;DHT22;24982;52.344;12.990;2022-11-20T17:12:48;0.90;99.90
9662;DHT22;24982;52.344;12.990;2022-11-20T17:15:50;1.00;99.90
9662;DHT22;24982;52.344;12.990;2022-11-20T17:18:54;1.00;99.90
9662;DHT22;24982;52.344;12.990;2022-11-20T17:21:57;1.00;99.90
9662;DHT22;24982;52.344;12.990;2022-11-20T17:24:59;0.90;99.90
9662;DHT22;24982;52.344;12.990;2022-11-20T17:28:01;0.80;99.90
9662;DHT22;24982;52.344;12.990;2022-11-20T17:31:05;0.90;99.90
9662;DHT22;24982;52.344;12.990;2022-11-20T17:34:10;0.90;99.90
9662;DHT22;24982;52.344;12.990;2022-11-20T17:40:16;0.60;99.90
9662;DHT22;24982;52.344;12.990;2022-11-20T17:43:18;0.60;99.90
9662;DHT22;24982;52.344;12.990;2022-11-20T17:46:21;0.60;99.90
9662;DHT22;24982;52.344;12.990;2022-11-20T17:49:24;0.60;99.90
9662;DHT22;24982;52.344;12.990;2022-11-20T17:52:27;0.60;99.90
9662;DHT22;24982;52.344;12.990;2022-11-20T17:55:29;0.60;99.90
9662;DHT22;24982;52.344;12.990;2022-11-20T17:58:51;0.60;99.90
9662;DHT22;24982;52.344;12.990;2022-11-20T18:01:52;0.70;99.90
9662;DHT22;24982;52.344;12.990;2022-11-20T18:04:54;0.70;99.90
9662;DHT22;24982;52.344;12.990;2022-11-20T18:07:58;0.70;99.90
9662;DHT22;24982;52.344;12.990;2022-11-20T18:10:59;0.60;99.90
9662;DHT22;24982;52.344;12.990;2022-11-20T18:14:03;0.60;99.90
9662;DHT22;24982;52.344;12.990;2022-11-20T18:17:23;0.60;99.90
9662;DHT22;24982;52.344;12.990;2022-11-20T18:20:25;0.60;99.90
9662;DHT22;24982;52.344;12.990;2022-11-20T18:23:29;0.50;99.90
9662;DHT22;24982;52.344;12.990;2022-11-20T18:26:31;0.50;99.90
9662;DHT22;24982;52.344;12.990;2022-11-20T18:29:33;0.50;99.90
9662;DHT22;24982;52.344;12.990;2022-11-20T18:32:35;0.40;99.90
9662;DHT22;24982;52.344;12.990;2022-11-20T18:35:37;0.40;99.90
9662;DHT22;24982;52.344;12.990;2022-11-20T18:38:45;0.50;99.90
9662;DHT22;24982;52.344;12.990;2022-11-20T18:41:47;0.50;99.90
9662;DHT22;24982;52.344;12.990;2022-11-20T18:45:07;0.40;99.90
9662;DHT22;24982;52.344;12.990;2022-11-20T18:48:09;0.40;99.90
9662;DHT22;24982;52.344;12.990;2022-11-20T18:51:11;0.40;99.90
9662;DHT22;24982;52.344;12.990;2022-11-20T18:54:17;0.30;99.90
9662;DHT22;24982;52.344;12.990;2022-11-20T18:57:20;0.30;99.90
9662;DHT22;24982;52.344;12.990;2022-11-20T19:00:22;0.30;99.90
9662;DHT22;24982;52.344;12.990;2022-11-20T19:03:26;0.40;99.90
9662;DHT22;24982;52.344;12.990;2022-11-20T19:06:29;0.40;99.90
9662;DHT22;24982;52.344;12.990;2022-11-20T19:09:32;0.40;99.90
9662;DHT22;24982;52.344;12.990;2022-11-20T19:12:34;0.30;99.90
9662;DHT22;24982;52.344;12.990;2022-11-20T19:15:36;0.30;99.90
9662;DHT22;24982;52.344;12.990;2022-11-20T19:18:38;0.30;99.90
9662;DHT22;24982;52.344;12.990;2022-11-20T19:21:41;0.30;99.90
9662;DHT22;24982;52.344;12.990;2022-11-20T19:24:44;0.30;99.90
9662;DHT22;24982;52.344;12.990;2022-11-20T19:27:49;0.40;99.90
9662;DHT22;24982;52.344;12.990;2022-11-20T19:30:51;0.40;99.90
9662;DHT22;24982;52.344;12.990;2022-11-20T19:33:54;0.40;99.90
9662;DHT22;24982;52.344;12.990;2022-11-20T19:36:57;0.40;99.90
9662;DHT22;24982;52.344;12.990;2022-11-20T19:40:01;0.40;99.90
9662;DHT22;24982;52.344;12.990;2022-11-20T19:43:05;0.40;99.90
9662;DHT22;24982;52.344;12.990;2022-11-20T19:46:07;0.40;99.90
9662;DHT22;24982;52.344;12.990;2022-11-20T19:49:11;0.40;99.90
9662;DHT22;24982;52.344;12.990;2022-11-20T19:52:13;0.30;99.90
9662;DHT22;24982;52.344;12.990;2022-11-20T19:55:17;0.30;99.90
9662;DHT22;24982;52.344;12.990;2022-11-20T19:58:19;0.40;99.90